sensor_id;sensor_type;location;lat;lon;timestamp;P1;durP1;ratioP1;P2;durP2;ratioP2
58412;SDS011;44209;52.952;6.790;2023-04-25T00:01:20;14.47;;;5.23;;
58412;SDS011;44209;52.952;6.790;2023-04-25T00:03:49;19.70;;;6.17;;
58412;SDS011;44209;52.952;6.790;2023-04-25T00:06:15;18.47;;;5.87;;
58412;SDS011;44209;52.952;6.790;2023-04-25T00:08:42;22.20;;;5.43;;
58412;SDS011;44209;52.952;6.790;2023-04-25T00:11:08;14.00;;;4.90;;
58412;SDS011;44209;52.952;6.790;2023-04-25T00:13:34;18.33;;;5.30;;
58412;SDS011;44209;52.952;6.790;2023-04-25T00:15:59;20.10;;;5.87;;
58412;SDS011;44209;52.952;6.790;2023-04-25T00:18:25;19.50;;;5.80;;
58412;SDS011;44209;52.952;6.790;2023-04-25T00:20:54;22.53;;;5.67;;
58412;SDS011;44209;52.952;6.790;2023-04-25T00:23:21;17.03;;;5.03;;
58412;SDS011;44209;52.952;6.790;2023-04-25T00:25:48;14.17;;;5.00;;
58412;SDS011;44209;52.952;6.790;2023-04-25T00:28:14;24.87;;;5.33;;
58412;SDS011;44209;52.952;6.790;2023-04-25T00:30:40;16.73;;;5.17;;
58412;SDS011;44209;52.952;6.790;2023-04-25T00:33:07;14.03;;;5.00;;
58412;SDS011;44209;52.952;6.790;2023-04-25T00:35:33;16.90;;;4.97;;
58412;SDS011;44209;52.952;6.790;2023-04-25T00:37:59;24.50;;;6.17;;
58412;SDS011;44209;52.952;6.790;2023-04-25T00:40:25;18.07;;;5.63;;
58412;SDS011;44209;52.952;6.790;2023-04-25T00:42:51;23.17;;;5.50;;
58412;SDS011;44209;52.952;6.790;2023-04-25T00:45:17;20.70;;;5.87;;
58412;SDS011;44209;52.952;6.790;2023-04-25T00:47:44;20.43;;;5.43;;
58412;SDS011;44209;52.952;6.790;2023-04-25T00:50:10;17.63;;;5.20;;
58412;SDS011;44209;52.952;6.790;2023-04-25T00:52:40;18.57;;;5.10;;
58412;SDS011;44209;52.952;6.790;2023-04-25T00:55:08;16.00;;;5.00;;
58412;SDS011;44209;52.952;6.790;2023-04-25T00:57:36;17.27;;;4.97;;
58412;SDS011;44209;52.952;6.790;2023-04-25T01:00:02;22.23;;;5.73;;
58412;SDS011;44209;52.952;6.790;2023-04-25T01:02:30;20.80;;;5.40;;
58412;SDS011;44209;52.952;6.790;2023-04-25T01:04:57;17.07;;;5.60;;
58412;SDS011;44209;52.952;6.790;2023-04-25T01:07:23;17.93;;;5.43;;
58412;SDS011;44209;52.952;6.790;2023-04-25T01:09:49;19.03;;;5.33;;
58412;SDS011;44209;52.952;6.790;2023-04-25T01:12:17;16.87;;;5.60;;
58412;SDS011;44209;52.952;6.790;2023-04-25T01:14:42;14.43;;;5.20;;
58412;SDS011;44209;52.952;6.790;2023-04-25T01:17:09;17.90;;;5.23;;
58412;SDS011;44209;52.952;6.790;2023-04-25T01:19:35;18.57;;;5.33;;
58412;SDS011;44209;52.952;6.790;2023-04-25T01:22:00;17.80;;;5.53;;
58412;SDS011;44209;52.952;6.790;2023-04-25T01:24:26;22.50;;;6.20;;
58412;SDS011;44209;52.952;6.790;2023-04-25T01:26:53;14.27;;;5.27;;
58412;SDS011;44209;52.952;6.790;2023-04-25T01:29:21;19.37;;;5.70;;
58412;SDS011;44209;52.952;6.790;2023-04-25T01:31:48;15.20;;;5.23;;
58412;SDS011;44209;52.952;6.790;2023-04-25T01:34:15;17.43;;;5.43;;
58412;SDS011;44209;52.952;6.790;2023-04-25T01:36:41;21.90;;;5.50;;
58412;SDS011;44209;52.952;6.790;2023-04-25T01:39:07;17.93;;;5.50;;
58412;SDS011;44209;52.952;6.790;2023-04-25T01:41:33;21.43;;;4.90;;
58412;SDS011;44209;52.952;6.790;2023-04-25T01:43:59;15.83;;;4.90;;
58412;SDS011;44209;52.952;6.790;2023-04-25T01:46:25;15.07;;;4.90;;
58412;SDS011;44209;52.952;6.790;2023-04-25T01:48:51;18.50;;;4.87;;
58412;SDS011;44209;52.952;6.790;2023-04-25T01:51:17;16.30;;;4.80;;
58412;SDS011;44209;52.952;6.790;2023-04-25T01:53:43;19.53;;;5.90;;
58412;SDS011;44209;52.952;6.790;2023-04-25T01:56:09;15.67;;;4.80;;
58412;SDS011;44209;52.952;6.790;2023-04-25T01:58:35;15.37;;;4.73;;
58412;SDS011;44209;52.952;6.790;2023-04-25T02:01:01;16.47;;;5.00;;
58412;SDS011;44209;52.952;6.790;2023-04-25T02:03:27;18.00;;;4.43;;
58412;SDS011;44209;52.952;6.790;2023-04-25T02:05:52;16.73;;;4.90;;
58412;SDS011;44209;52.952;6.790;2023-04-25T02:08:18;13.53;;;5.23;;
58412;SDS011;44209;52.952;6.790;2023-04-25T02:10:44;17.40;;;5.13;;
58412;SDS011;44209;52.952;6.790;2023-04-25T02:13:09;13.73;;;5.10;;
58412;SDS011;44209;52.952;6.790;2023-04-25T02:15:35;13.63;;;4.60;;
58412;SDS011;44209;52.952;6.790;2023-04-25T02:18:01;17.23;;;5.20;;
58412;SDS011;44209;52.952;6.790;2023-04-25T02:20:27;15.00;;;4.37;;
58412;SDS011;44209;52.952;6.790;2023-04-25T02:22:54;17.33;;;4.77;;
58412;SDS011;44209;52.952;6.790;2023-04-25T02:25:20;18.73;;;5.13;;
58412;SDS011;44209;52.952;6.790;2023-04-25T02:27:46;14.93;;;4.90;;
58412;SDS011;44209;52.952;6.790;2023-04-25T02:30:13;17.77;;;4.87;;
58412;SDS011;44209;52.952;6.790;2023-04-25T02:32:39;16.90;;;4.63;;
58412;SDS011;44209;52.952;6.790;2023-04-25T02:35:05;17.83;;;4.97;;
58412;SDS011;44209;52.952;6.790;2023-04-25T02:37:31;18.00;;;4.73;;
58412;SDS011;44209;52.952;6.790;2023-04-25T02:39:58;18.83;;;4.77;;
58412;SDS011;44209;52.952;6.790;2023-04-25T02:42:23;17.37;;;4.83;;
58412;SDS011;44209;52.952;6.790;2023-04-25T02:44:49;18.60;;;4.70;;
58412;SDS011;44209;52.952;6.790;2023-04-25T02:47:15;15.23;;;4.70;;
58412;SDS011;44209;52.952;6.790;2023-04-25T02:49:40;16.03;;;4.57;;
58412;SDS011;44209;52.952;6.790;2023-04-25T02:52:06;11.80;;;4.40;;
58412;SDS011;44209;52.952;6.790;2023-04-25T02:54:32;16.03;;;5.17;;
58412;SDS011;44209;52.952;6.790;2023-04-25T02:56:58;15.43;;;4.53;;
58412;SDS011;44209;52.952;6.790;2023-04-25T02:59:23;13.50;;;4.17;;
58412;SDS011;44209;52.952;6.790;2023-04-25T03:01:49;17.57;;;5.10;;
58412;SDS011;44209;52.952;6.790;2023-04-25T03:04:15;13.53;;;4.00;;
58412;SDS011;44209;52.952;6.790;2023-04-25T03:06:40;13.37;;;4.20;;
58412;SDS011;44209;52.952;6.790;2023-04-25T03:09:06;13.37;;;4.77;;
58412;SDS011;44209;52.952;6.790;2023-04-25T03:11:32;13.87;;;4.00;;
58412;SDS011;44209;52.952;6.790;2023-04-25T03:13:58;12.03;;;3.83;;
58412;SDS011;44209;52.952;6.790;2023-04-25T03:16:23;16.73;;;4.33;;
58412;SDS011;44209;52.952;6.790;2023-04-25T03:18:49;15.60;;;4.50;;
58412;SDS011;44209;52.952;6.790;2023-04-25T03:21:16;14.33;;;4.13;;
58412;SDS011;44209;52.952;6.790;2023-04-25T03:23:42;14.87;;;4.27;;
58412;SDS011;44209;52.952;6.790;2023-04-25T03:26:07;14.47;;;3.80;;
58412;SDS011;44209;52.952;6.790;2023-04-25T03:28:33;18.03;;;5.27;;
58412;SDS011;44209;52.952;6.790;2023-04-25T03:30:59;16.20;;;3.90;;
58412;SDS011;44209;52.952;6.790;2023-04-25T03:33:24;14.80;;;4.27;;
58412;SDS011;44209;52.952;6.790;2023-04-25T03:35:50;12.63;;;3.87;;
58412;SDS011;44209;52.952;6.790;2023-04-25T03:38:16;14.70;;;4.20;;
58412;SDS011;44209;52.952;6.790;2023-04-25T03:40:42;16.60;;;4.07;;
58412;SDS011;44209;52.952;6.790;2023-04-25T03:43:08;10.97;;;4.00;;
58412;SDS011;44209;52.952;6.790;2023-04-25T03:45:34;12.93;;;3.83;;
58412;SDS011;44209;52.952;6.790;2023-04-25T03:47:59;17.50;;;3.73;;
58412;SDS011;44209;52.952;6.790;2023-04-25T03:50:25;17.90;;;4.03;;
58412;SDS011;44209;52.952;6.790;2023-04-25T03:52:51;13.37;;;3.87;;
58412;SDS011;44209;52.952;6.790;2023-04-25T03:55:17;15.90;;;4.30;;
58412;SDS011;44209;52.952;6.790;2023-04-25T03:57:43;14.13;;;3.63;;
58412;SDS011;44209;52.952;6.790;2023-04-25T04:00:08;14.50;;;3.63;;
58412;SDS011;44209;52.952;6.790;2023-04-25T04:02:34;14.93;;;4.00;;
58412;SDS011;44209;52.952;6.790;2023-04-25T04:05:01;14.47;;;4.13;;
58412;SDS011;44209;52.952;6.790;2023-04-25T04:07:27;15.43;;;4.17;;
58412;SDS011;44209;52.952;6.790;2023-04-25T04:09:53;10.23;;;3.73;;
58412;SDS011;44209;52.952;6.790;2023-04-25T04:12:19;19.57;;;3.57;;
58412;SDS011;44209;52.952;6.790;2023-04-25T04:14:44;14.40;;;3.40;;
58412;SDS011;44209;52.952;6.790;2023-04-25T04:17:10;11.23;;;3.73;;
58412;SDS011;44209;52.952;6.790;2023-04-25T04:19:36;14.60;;;3.60;;
58412;SDS011;44209;52.952;6.790;2023-04-25T04:22:02;15.93;;;4.00;;
58412;SDS011;44209;52.952;6.790;2023-04-25T04:24:27;12.47;;;3.40;;
58412;SDS011;44209;52.952;6.790;2023-04-25T04:26:53;13.47;;;3.27;;
58412;SDS011;44209;52.952;6.790;2023-04-25T04:29:18;16.47;;;3.67;;
58412;SDS011;44209;52.952;6.790;2023-04-25T04:31:49;12.77;;;3.67;;
58412;SDS011;44209;52.952;6.790;2023-04-25T04:34:15;11.80;;;3.63;;
58412;SDS011;44209;52.952;6.790;2023-04-25T04:36:43;14.20;;;3.60;;
58412;SDS011;44209;52.952;6.790;2023-04-25T04:39:11;9.10;;;2.90;;
58412;SDS011;44209;52.952;6.790;2023-04-25T04:41:37;13.80;;;3.30;;
58412;SDS011;44209;52.952;6.790;2023-04-25T04:44:03;11.03;;;2.80;;
58412;SDS011;44209;52.952;6.790;2023-04-25T04:46:29;13.93;;;2.77;;
58412;SDS011;44209;52.952;6.790;2023-04-25T04:49:03;10.73;;;2.57;;
58412;SDS011;44209;52.952;6.790;2023-04-25T04:51:31;12.77;;;2.93;;
58412;SDS011;44209;52.952;6.790;2023-04-25T04:53:58;10.27;;;3.20;;
58412;SDS011;44209;52.952;6.790;2023-04-25T04:56:27;8.07;;;2.63;;
58412;SDS011;44209;52.952;6.790;2023-04-25T04:58:58;7.17;;;2.77;;
58412;SDS011;44209;52.952;6.790;2023-04-25T05:01:25;15.03;;;2.90;;
58412;SDS011;44209;52.952;6.790;2023-04-25T05:03:51;12.07;;;3.23;;
58412;SDS011;44209;52.952;6.790;2023-04-25T05:06:20;8.63;;;2.60;;
58412;SDS011;44209;52.952;6.790;2023-04-25T05:08:46;7.97;;;2.30;;
58412;SDS011;44209;52.952;6.790;2023-04-25T05:11:12;10.47;;;2.93;;
58412;SDS011;44209;52.952;6.790;2023-04-25T05:13:37;13.93;;;3.17;;
58412;SDS011;44209;52.952;6.790;2023-04-25T05:16:03;9.80;;;2.20;;
58412;SDS011;44209;52.952;6.790;2023-04-25T05:18:29;8.50;;;2.30;;
58412;SDS011;44209;52.952;6.790;2023-04-25T05:20:55;5.23;;;2.40;;
58412;SDS011;44209;52.952;6.790;2023-04-25T05:23:20;11.30;;;2.37;;
58412;SDS011;44209;52.952;6.790;2023-04-25T05:25:46;8.50;;;2.40;;
58412;SDS011;44209;52.952;6.790;2023-04-25T05:28:12;10.27;;;2.80;;
58412;SDS011;44209;52.952;6.790;2023-04-25T05:30:38;9.00;;;2.80;;
58412;SDS011;44209;52.952;6.790;2023-04-25T05:33:04;10.43;;;2.53;;
58412;SDS011;44209;52.952;6.790;2023-04-25T05:35:30;8.37;;;2.77;;
58412;SDS011;44209;52.952;6.790;2023-04-25T05:37:56;8.90;;;2.43;;
58412;SDS011;44209;52.952;6.790;2023-04-25T05:40:21;8.90;;;2.70;;
58412;SDS011;44209;52.952;6.790;2023-04-25T05:42:47;10.60;;;2.80;;
58412;SDS011;44209;52.952;6.790;2023-04-25T05:45:12;12.33;;;2.80;;
58412;SDS011;44209;52.952;6.790;2023-04-25T05:47:38;6.10;;;2.20;;
58412;SDS011;44209;52.952;6.790;2023-04-25T05:50:04;9.50;;;2.43;;
58412;SDS011;44209;52.952;6.790;2023-04-25T05:52:31;8.00;;;2.30;;
58412;SDS011;44209;52.952;6.790;2023-04-25T05:54:56;8.73;;;2.10;;
58412;SDS011;44209;52.952;6.790;2023-04-25T05:57:24;9.67;;;2.40;;
58412;SDS011;44209;52.952;6.790;2023-04-25T05:59:51;9.93;;;2.40;;
58412;SDS011;44209;52.952;6.790;2023-04-25T06:02:18;9.43;;;2.97;;
58412;SDS011;44209;52.952;6.790;2023-04-25T06:04:45;9.23;;;3.20;;
58412;SDS011;44209;52.952;6.790;2023-04-25T06:07:11;19.17;;;2.77;;
58412;SDS011;44209;52.952;6.790;2023-04-25T06:09:38;6.60;;;2.63;;
58412;SDS011;44209;52.952;6.790;2023-04-25T06:12:05;8.50;;;2.70;;
58412;SDS011;44209;52.952;6.790;2023-04-25T06:14:32;7.90;;;2.97;;
58412;SDS011;44209;52.952;6.790;2023-04-25T06:16:58;9.83;;;2.97;;
58412;SDS011;44209;52.952;6.790;2023-04-25T06:19:24;10.10;;;2.80;;
58412;SDS011;44209;52.952;6.790;2023-04-25T06:21:49;8.13;;;2.63;;
58412;SDS011;44209;52.952;6.790;2023-04-25T06:24:15;10.03;;;2.87;;
58412;SDS011;44209;52.952;6.790;2023-04-25T06:26:41;9.57;;;2.70;;
58412;SDS011;44209;52.952;6.790;2023-04-25T06:29:06;8.47;;;2.83;;
58412;SDS011;44209;52.952;6.790;2023-04-25T06:31:32;6.40;;;2.17;;
58412;SDS011;44209;52.952;6.790;2023-04-25T06:33:58;6.83;;;2.40;;
58412;SDS011;44209;52.952;6.790;2023-04-25T06:36:24;8.27;;;2.83;;
58412;SDS011;44209;52.952;6.790;2023-04-25T06:38:52;12.00;;;2.80;;
58412;SDS011;44209;52.952;6.790;2023-04-25T06:41:18;8.33;;;2.67;;
58412;SDS011;44209;52.952;6.790;2023-04-25T06:43:44;9.80;;;2.50;;
58412;SDS011;44209;52.952;6.790;2023-04-25T06:46:10;10.67;;;2.90;;
58412;SDS011;44209;52.952;6.790;2023-04-25T06:48:36;14.27;;;2.73;;
58412;SDS011;44209;52.952;6.790;2023-04-25T06:51:02;12.00;;;3.07;;
58412;SDS011;44209;52.952;6.790;2023-04-25T06:53:28;10.50;;;2.50;;
58412;SDS011;44209;52.952;6.790;2023-04-25T06:55:54;7.67;;;2.50;;
58412;SDS011;44209;52.952;6.790;2023-04-25T06:58:19;9.60;;;2.37;;
58412;SDS011;44209;52.952;6.790;2023-04-25T07:00:45;12.27;;;3.60;;
58412;SDS011;44209;52.952;6.790;2023-04-25T07:03:11;9.80;;;2.37;;
58412;SDS011;44209;52.952;6.790;2023-04-25T07:05:37;7.63;;;2.17;;
58412;SDS011;44209;52.952;6.790;2023-04-25T07:08:02;8.87;;;2.70;;
58412;SDS011;44209;52.952;6.790;2023-04-25T07:10:28;8.73;;;2.30;;
58412;SDS011;44209;52.952;6.790;2023-04-25T07:12:54;8.33;;;2.20;;
58412;SDS011;44209;52.952;6.790;2023-04-25T07:15:20;11.30;;;2.40;;
58412;SDS011;44209;52.952;6.790;2023-04-25T07:17:46;9.13;;;2.30;;
58412;SDS011;44209;52.952;6.790;2023-04-25T07:20:11;11.57;;;2.57;;
58412;SDS011;44209;52.952;6.790;2023-04-25T07:22:37;6.50;;;2.17;;
58412;SDS011;44209;52.952;6.790;2023-04-25T07:25:03;13.77;;;2.87;;
58412;SDS011;44209;52.952;6.790;2023-04-25T07:27:30;8.27;;;2.20;;
58412;SDS011;44209;52.952;6.790;2023-04-25T07:29:56;6.83;;;2.17;;
58412;SDS011;44209;52.952;6.790;2023-04-25T07:32:22;5.97;;;2.23;;
58412;SDS011;44209;52.952;6.790;2023-04-25T07:34:48;7.80;;;2.33;;
58412;SDS011;44209;52.952;6.790;2023-04-25T07:37:14;6.23;;;2.00;;
58412;SDS011;44209;52.952;6.790;2023-04-25T07:39:40;7.30;;;2.37;;
58412;SDS011;44209;52.952;6.790;2023-04-25T07:42:06;11.57;;;2.50;;
58412;SDS011;44209;52.952;6.790;2023-04-25T07:44:36;8.63;;;2.07;;
58412;SDS011;44209;52.952;6.790;2023-04-25T07:47:06;9.70;;;2.40;;
58412;SDS011;44209;52.952;6.790;2023-04-25T07:49:33;8.33;;;2.00;;
58412;SDS011;44209;52.952;6.790;2023-04-25T07:52:00;7.73;;;1.93;;
58412;SDS011;44209;52.952;6.790;2023-04-25T07:54:27;9.37;;;2.00;;
58412;SDS011;44209;52.952;6.790;2023-04-25T07:56:53;5.13;;;1.77;;
58412;SDS011;44209;52.952;6.790;2023-04-25T07:59:18;10.53;;;2.17;;
58412;SDS011;44209;52.952;6.790;2023-04-25T08:01:44;3.83;;;1.43;;
58412;SDS011;44209;52.952;6.790;2023-04-25T08:04:10;6.23;;;1.70;;
58412;SDS011;44209;52.952;6.790;2023-04-25T08:06:36;9.83;;;2.07;;
58412;SDS011;44209;52.952;6.790;2023-04-25T08:09:02;7.37;;;1.50;;
58412;SDS011;44209;52.952;6.790;2023-04-25T08:11:29;8.53;;;1.60;;
58412;SDS011;44209;52.952;6.790;2023-04-25T08:13:55;6.47;;;1.40;;
58412;SDS011;44209;52.952;6.790;2023-04-25T08:16:20;5.73;;;1.30;;
58412;SDS011;44209;52.952;6.790;2023-04-25T08:18:47;7.80;;;1.67;;
58412;SDS011;44209;52.952;6.790;2023-04-25T08:21:13;6.23;;;1.47;;
58412;SDS011;44209;52.952;6.790;2023-04-25T08:23:40;5.60;;;1.40;;
58412;SDS011;44209;52.952;6.790;2023-04-25T08:26:06;5.70;;;1.47;;
58412;SDS011;44209;52.952;6.790;2023-04-25T08:28:32;9.80;;;1.60;;
58412;SDS011;44209;52.952;6.790;2023-04-25T08:30:57;5.67;;;1.43;;
58412;SDS011;44209;52.952;6.790;2023-04-25T08:33:23;8.90;;;1.97;;
58412;SDS011;44209;52.952;6.790;2023-04-25T08:35:49;5.47;;;1.67;;
58412;SDS011;44209;52.952;6.790;2023-04-25T08:38:15;5.97;;;1.90;;
58412;SDS011;44209;52.952;6.790;2023-04-25T08:40:40;5.00;;;1.67;;
58412;SDS011;44209;52.952;6.790;2023-04-25T08:43:08;9.40;;;1.70;;
58412;SDS011;44209;52.952;6.790;2023-04-25T08:45:38;7.60;;;2.03;;
58412;SDS011;44209;52.952;6.790;2023-04-25T08:48:10;7.70;;;1.83;;
58412;SDS011;44209;52.952;6.790;2023-04-25T08:50:42;6.82;;;1.67;;
58412;SDS011;44209;52.952;6.790;2023-04-25T08:53:14;5.63;;;1.60;;
58412;SDS011;44209;52.952;6.790;2023-04-25T08:55:43;7.33;;;1.90;;
58412;SDS011;44209;52.952;6.790;2023-04-25T08:58:11;5.43;;;1.53;;
58412;SDS011;44209;52.952;6.790;2023-04-25T09:00:38;7.37;;;2.07;;
58412;SDS011;44209;52.952;6.790;2023-04-25T09:03:04;3.53;;;1.10;;
58412;SDS011;44209;52.952;6.790;2023-04-25T09:05:31;3.80;;;0.83;;
58412;SDS011;44209;52.952;6.790;2023-04-25T09:07:58;6.30;;;1.53;;
58412;SDS011;44209;52.952;6.790;2023-04-25T09:10:26;2.77;;;1.00;;
58412;SDS011;44209;52.952;6.790;2023-04-25T09:13:02;3.37;;;1.00;;
58412;SDS011;44209;52.952;6.790;2023-04-25T09:15:33;3.80;;;1.05;;
58412;SDS011;44209;52.952;6.790;2023-04-25T09:18:13;3.63;;;1.10;;
58412;SDS011;44209;52.952;6.790;2023-04-25T09:20:42;3.60;;;1.20;;
58412;SDS011;44209;52.952;6.790;2023-04-25T09:23:08;3.27;;;1.10;;
58412;SDS011;44209;52.952;6.790;2023-04-25T09:25:35;5.70;;;1.20;;
58412;SDS011;44209;52.952;6.790;2023-04-25T09:28:05;3.83;;;1.07;;
58412;SDS011;44209;52.952;6.790;2023-04-25T09:30:32;3.30;;;1.20;;
58412;SDS011;44209;52.952;6.790;2023-04-25T09:33:06;3.57;;;1.10;;
58412;SDS011;44209;52.952;6.790;2023-04-25T09:35:37;4.07;;;1.30;;
58412;SDS011;44209;52.952;6.790;2023-04-25T09:38:22;3.35;;;1.13;;
58412;SDS011;44209;52.952;6.790;2023-04-25T09:40:48;3.23;;;1.20;;
58412;SDS011;44209;52.952;6.790;2023-04-25T09:43:24;4.83;;;1.40;;
58412;SDS011;44209;52.952;6.790;2023-04-25T09:45:54;4.23;;;1.30;;
58412;SDS011;44209;52.952;6.790;2023-04-25T09:48:22;6.63;;;1.17;;
58412;SDS011;44209;52.952;6.790;2023-04-25T09:51:08;5.83;;;1.50;;
58412;SDS011;44209;52.952;6.790;2023-04-25T09:53:41;4.90;;;1.33;;
58412;SDS011;44209;52.952;6.790;2023-04-25T09:56:09;4.63;;;1.20;;
58412;SDS011;44209;52.952;6.790;2023-04-25T09:58:37;4.43;;;1.30;;
58412;SDS011;44209;52.952;6.790;2023-04-25T10:01:05;4.40;;;1.67;;
58412;SDS011;44209;52.952;6.790;2023-04-25T10:03:41;4.10;;;1.30;;
58412;SDS011;44209;52.952;6.790;2023-04-25T10:06:11;6.27;;;1.50;;
58412;SDS011;44209;52.952;6.790;2023-04-25T10:08:39;7.53;;;1.77;;
58412;SDS011;44209;52.952;6.790;2023-04-25T10:11:08;5.20;;;1.40;;
58412;SDS011;44209;52.952;6.790;2023-04-25T10:13:34;3.23;;;1.40;;
58412;SDS011;44209;52.952;6.790;2023-04-25T10:16:02;5.30;;;1.20;;
58412;SDS011;44209;52.952;6.790;2023-04-25T10:18:29;3.07;;;1.20;;
58412;SDS011;44209;52.952;6.790;2023-04-25T10:20:56;6.50;;;1.87;;
58412;SDS011;44209;52.952;6.790;2023-04-25T10:23:26;3.23;;;1.40;;
58412;SDS011;44209;52.952;6.790;2023-04-25T10:25:54;4.70;;;1.30;;
58412;SDS011;44209;52.952;6.790;2023-04-25T10:28:20;6.43;;;1.63;;
58412;SDS011;44209;52.952;6.790;2023-04-25T10:33:37;3.37;;;1.17;;
58412;SDS011;44209;52.952;6.790;2023-04-25T10:36:11;5.17;;;1.60;;
58412;SDS011;44209;52.952;6.790;2023-04-25T10:38:42;3.40;;;1.50;;
58412;SDS011;44209;52.952;6.790;2023-04-25T10:41:09;7.47;;;1.60;;
58412;SDS011;44209;52.952;6.790;2023-04-25T10:43:37;3.80;;;1.50;;
58412;SDS011;44209;52.952;6.790;2023-04-25T10:48:46;6.57;;;1.70;;
58412;SDS011;44209;52.952;6.790;2023-04-25T10:51:23;8.13;;;1.90;;
58412;SDS011;44209;52.952;6.790;2023-04-25T10:56:21;6.33;;;1.70;;
58412;SDS011;44209;52.952;6.790;2023-04-25T10:59:18;4.83;;;1.60;;
58412;SDS011;44209;52.952;6.790;2023-04-25T11:01:46;6.50;;;2.30;;
58412;SDS011;44209;52.952;6.790;2023-04-25T11:04:32;8.47;;;1.83;;
58412;SDS011;44209;52.952;6.790;2023-04-25T11:09:38;7.23;;;1.70;;
58412;SDS011;44209;52.952;6.790;2023-04-25T11:12:07;7.60;;;2.30;;
58412;SDS011;44209;52.952;6.790;2023-04-25T11:14:34;5.97;;;2.00;;
58412;SDS011;44209;52.952;6.790;2023-04-25T11:17:00;5.50;;;1.80;;
58412;SDS011;44209;52.952;6.790;2023-04-25T11:19:29;6.27;;;1.87;;
58412;SDS011;44209;52.952;6.790;2023-04-25T11:21:59;6.37;;;1.57;;
58412;SDS011;44209;52.952;6.790;2023-04-25T11:24:27;5.47;;;1.50;;
58412;SDS011;44209;52.952;6.790;2023-04-25T11:26:53;7.23;;;2.57;;
58412;SDS011;44209;52.952;6.790;2023-04-25T11:29:23;5.17;;;1.83;;
58412;SDS011;44209;52.952;6.790;2023-04-25T11:31:51;8.73;;;1.63;;
58412;SDS011;44209;52.952;6.790;2023-04-25T11:34:18;6.10;;;1.63;;
58412;SDS011;44209;52.952;6.790;2023-04-25T11:36:45;6.83;;;1.97;;
58412;SDS011;44209;52.952;6.790;2023-04-25T11:39:11;7.03;;;1.60;;
58412;SDS011;44209;52.952;6.790;2023-04-25T11:41:37;7.40;;;1.73;;
58412;SDS011;44209;52.952;6.790;2023-04-25T11:44:03;8.90;;;1.70;;
58412;SDS011;44209;52.952;6.790;2023-04-25T11:46:30;6.27;;;1.70;;
58412;SDS011;44209;52.952;6.790;2023-04-25T11:48:58;6.20;;;1.80;;
58412;SDS011;44209;52.952;6.790;2023-04-25T11:51:24;3.27;;;1.40;;
58412;SDS011;44209;52.952;6.790;2023-04-25T11:53:51;9.23;;;2.10;;
58412;SDS011;44209;52.952;6.790;2023-04-25T11:56:17;4.23;;;1.73;;
58412;SDS011;44209;52.952;6.790;2023-04-25T11:58:59;6.33;;;1.80;;
58412;SDS011;44209;52.952;6.790;2023-04-25T12:01:29;6.30;;;2.00;;
58412;SDS011;44209;52.952;6.790;2023-04-25T12:03:57;3.63;;;1.77;;
58412;SDS011;44209;52.952;6.790;2023-04-25T12:06:28;5.33;;;1.87;;
58412;SDS011;44209;52.952;6.790;2023-04-25T12:09:02;6.93;;;1.98;;
58412;SDS011;44209;52.952;6.790;2023-04-25T12:11:39;5.50;;;1.80;;
58412;SDS011;44209;52.952;6.790;2023-04-25T12:14:06;6.60;;;1.90;;
58412;SDS011;44209;52.952;6.790;2023-04-25T12:16:41;9.70;;;1.90;;
58412;SDS011;44209;52.952;6.790;2023-04-25T12:19:15;5.67;;;2.17;;
58412;SDS011;44209;52.952;6.790;2023-04-25T12:21:42;5.57;;;1.83;;
58412;SDS011;44209;52.952;6.790;2023-04-25T12:24:15;9.17;;;2.13;;
58412;SDS011;44209;52.952;6.790;2023-04-25T12:26:59;9.30;;;1.70;;
58412;SDS011;44209;52.952;6.790;2023-04-25T12:29:29;7.03;;;2.43;;
58412;SDS011;44209;52.952;6.790;2023-04-25T12:31:56;4.97;;;1.80;;
58412;SDS011;44209;52.952;6.790;2023-04-25T12:34:23;4.17;;;1.70;;
58412;SDS011;44209;52.952;6.790;2023-04-25T12:36:49;4.13;;;1.37;;
58412;SDS011;44209;52.952;6.790;2023-04-25T12:39:22;3.23;;;1.57;;
58412;SDS011;44209;52.952;6.790;2023-04-25T12:41:49;4.97;;;1.50;;
58412;SDS011;44209;52.952;6.790;2023-04-25T12:44:17;4.37;;;1.23;;
58412;SDS011;44209;52.952;6.790;2023-04-25T12:46:43;2.17;;;1.10;;
58412;SDS011;44209;52.952;6.790;2023-04-25T12:49:08;4.23;;;1.30;;
58412;SDS011;44209;52.952;6.790;2023-04-25T12:51:35;3.50;;;1.30;;
58412;SDS011;44209;52.952;6.790;2023-04-25T12:54:01;6.67;;;1.67;;
58412;SDS011;44209;52.952;6.790;2023-04-25T12:56:28;5.00;;;1.70;;
58412;SDS011;44209;52.952;6.790;2023-04-25T12:58:54;8.13;;;1.70;;
58412;SDS011;44209;52.952;6.790;2023-04-25T13:01:20;6.23;;;1.90;;
58412;SDS011;44209;52.952;6.790;2023-04-25T13:03:46;6.00;;;1.70;;
58412;SDS011;44209;52.952;6.790;2023-04-25T13:06:13;6.20;;;1.83;;
58412;SDS011;44209;52.952;6.790;2023-04-25T13:08:39;6.47;;;1.80;;
58412;SDS011;44209;52.952;6.790;2023-04-25T13:11:06;7.13;;;1.87;;
58412;SDS011;44209;52.952;6.790;2023-04-25T13:13:32;4.60;;;1.90;;
58412;SDS011;44209;52.952;6.790;2023-04-25T13:16:00;5.57;;;1.63;;
58412;SDS011;44209;52.952;6.790;2023-04-25T13:18:29;4.50;;;1.20;;
58412;SDS011;44209;52.952;6.790;2023-04-25T13:20:56;2.57;;;1.10;;
58412;SDS011;44209;52.952;6.790;2023-04-25T13:23:22;2.80;;;1.20;;
58412;SDS011;44209;52.952;6.790;2023-04-25T13:25:50;5.83;;;1.50;;
58412;SDS011;44209;52.952;6.790;2023-04-25T13:28:15;5.67;;;1.73;;
58412;SDS011;44209;52.952;6.790;2023-04-25T13:30:41;5.30;;;1.87;;
58412;SDS011;44209;52.952;6.790;2023-04-25T13:33:08;5.50;;;1.37;;
58412;SDS011;44209;52.952;6.790;2023-04-25T13:35:34;5.10;;;1.77;;
58412;SDS011;44209;52.952;6.790;2023-04-25T13:38:00;9.33;;;1.73;;
58412;SDS011;44209;52.952;6.790;2023-04-25T13:40:26;7.53;;;1.57;;
58412;SDS011;44209;52.952;6.790;2023-04-25T13:42:52;5.17;;;1.60;;
58412;SDS011;44209;52.952;6.790;2023-04-25T13:45:19;4.77;;;1.80;;
58412;SDS011;44209;52.952;6.790;2023-04-25T13:47:45;6.57;;;1.50;;
58412;SDS011;44209;52.952;6.790;2023-04-25T13:50:11;8.53;;;2.40;;
58412;SDS011;44209;52.952;6.790;2023-04-25T13:52:38;7.37;;;1.50;;
58412;SDS011;44209;52.952;6.790;2023-04-25T13:55:05;6.20;;;2.07;;
58412;SDS011;44209;52.952;6.790;2023-04-25T13:57:32;7.73;;;1.60;;
58412;SDS011;44209;52.952;6.790;2023-04-25T13:59:58;5.20;;;1.53;;
58412;SDS011;44209;52.952;6.790;2023-04-25T14:02:24;4.10;;;1.63;;
58412;SDS011;44209;52.952;6.790;2023-04-25T14:04:51;7.03;;;1.50;;
58412;SDS011;44209;52.952;6.790;2023-04-25T14:07:16;5.17;;;1.60;;
58412;SDS011;44209;52.952;6.790;2023-04-25T14:09:46;5.60;;;1.70;;
58412;SDS011;44209;52.952;6.790;2023-04-25T14:12:11;6.60;;;2.00;;
58412;SDS011;44209;52.952;6.790;2023-04-25T14:14:37;5.73;;;1.80;;
58412;SDS011;44209;52.952;6.790;2023-04-25T14:17:03;7.00;;;1.80;;
58412;SDS011;44209;52.952;6.790;2023-04-25T14:19:29;7.77;;;2.40;;
58412;SDS011;44209;52.952;6.790;2023-04-25T14:21:55;7.07;;;2.30;;
58412;SDS011;44209;52.952;6.790;2023-04-25T14:24:21;9.43;;;1.83;;
58412;SDS011;44209;52.952;6.790;2023-04-25T14:26:46;5.27;;;1.40;;
58412;SDS011;44209;52.952;6.790;2023-04-25T14:29:12;4.73;;;1.67;;
58412;SDS011;44209;52.952;6.790;2023-04-25T14:31:38;6.27;;;1.70;;
58412;SDS011;44209;52.952;6.790;2023-04-25T14:34:06;3.70;;;1.40;;
58412;SDS011;44209;52.952;6.790;2023-04-25T14:36:32;7.33;;;1.93;;
58412;SDS011;44209;52.952;6.790;2023-04-25T14:38:59;6.10;;;1.43;;
58412;SDS011;44209;52.952;6.790;2023-04-25T14:41:25;4.73;;;1.60;;
58412;SDS011;44209;52.952;6.790;2023-04-25T14:43:51;4.37;;;1.50;;
58412;SDS011;44209;52.952;6.790;2023-04-25T14:46:21;7.00;;;1.83;;
58412;SDS011;44209;52.952;6.790;2023-04-25T14:48:48;5.30;;;2.30;;
58412;SDS011;44209;52.952;6.790;2023-04-25T14:51:14;6.50;;;1.57;;
58412;SDS011;44209;52.952;6.790;2023-04-25T14:53:40;5.20;;;1.50;;